Pagina principale
METAR-TAF:

METAR-TAF

Aeroporti :

Aeroporto di Trieste-Ronchi dei Legionari

Trieste / Ronchi dei Legionari, Italia

latitudine: 45-49N, longitudine: 013-29E, altezza: 12 m

Osservazione

Il bollettino è stato emesso 23 minuti fa, alle 02:20 UTC
Vento 2 kt da nord-est
Temperature 20°C
Umidità 88%
Pressione 1014 hPa
Visibilità 10 km o più

METAR: LIPQ 240220Z AUTO 04002KT 9999 FEW087/// 20/18 Q1014

Ora: 04:43 (02:43 UTC)

Previsione

Il bollettino è stato emesso 3 ore e 43 minuti fa, alle 23:00 UTC
Previsione valida dal 24 alle 00 UTC al 24 alle 24 UTC
Vento 5 kt da direzioni variabili
Visibilità 10 km o più
Nubi sparse ad un'altezza di 3000 ft
Evoluzione graduale
dal 24 alle 08 UTC al 24 alle 10 UTC
Vento 12 kt da sud-ovest
Evoluzione graduale
dal 24 alle 16 UTC al 24 alle 18 UTC
Vento 5 kt da direzioni variabili

TAF: LIPQ 232300Z 2400/2424 VRB05KT 9999 SCT030 BECMG 2408/2410 22012KT BECMG 2416/2418 VRB05KT

Osservazioni e previsioni meteorologiche di più di 4000 aeroporti (messaggi METAR e TAF).

Le stazioni disponibili sono rappresentate dai dischi gialli e rossi sulla carta.

Puntare il mouse per vedere il nome della stazione.

Clicca sopra per visualizzare le osservazioni e previsioni meteorologiche.

Per cambiare la mappa : fare clic sui pulsanti verdi con una croce nera per ingrandire, il pulsante verde con un trattino per diminuire, o sulla freccia verde per le mappe adiacenti.


METAR-TAF: